Terminal Aerodrome Forecast
Issued by NWS

Home | Current Version | Previous Version | Text Only | Print | Product List | Glossary Off
Versions: 1 2 3 4 5 6 7 8 9 10 11 12 13 14 15 16 17 18 19 20 21

134
FTUS42 KMHX 172344
TAFISO
TAF
KISO 172344Z 1800/1824 VRB03KT P6SM VCSH SCT007 OVC010
     FM180130 28006KT 3SM BR VCSH OVC007
     FM180900 32005KT P6SM BKN100
     FM181100 34006KT P6SM SCT150
     FM181600 02009KT P6SM FEW250
      AMD LTD TO CLD VIS AND WIND=

USA.gov is the U.S. government's official web portal to all federal, state and local government web resources and services.